Time;durP1;ratioP1;P1;durP2;ratioP2;P2;SDS_P1;SDS_P2;PMS_P1;PMS_P2;Temp;Humidity;BMP_temperature;BMP_pressure;BME280_temperature;BME280_humidity;BME280_pressure;Samples;Min_cycle;Max_cycle;Signal;HPM_P1;HPM_P2
2023/12/10 00:01:19;;;;;;;;;4.50;4.25;;;;;;;;5040797;28;44782;-74
2023/12/10 00:03:44;;;;;;;;;6.50;2.00;;;;;;;;5039327;28;44866;-74
2023/12/10 00:06:09;;;;;;;;;6.67;2.00;;;;;;;;5040241;28;45437;-74
2023/12/10 00:08:34;;;;;;;;;7.75;5.75;;;;;;;;5030895;28;44742;-74
2023/12/10 00:11:00;;;;;;;;;3.75;2.00;;;;;;;;5038432;28;45307;-74
2023/12/10 00:13:25;;;;;;;;;2.67;2.67;;;;;;;;5034475;28;45450;-74
2023/12/10 00:15:51;;;;;;;;;5.00;2.67;;;;;;;;5042982;28;45354;-74
2023/12/10 00:18:16;;;;;;;;;5.00;2.00;;;;;;;;5050423;28;45545;-75
2023/12/10 00:20:41;;;;;;;;;12.00;6.00;;;;;;;;5041501;28;45347;-74
2023/12/10 00:23:11;;;;;;;;;7.25;2.00;;;;;;;;5057173;28;45283;-75
2023/12/10 00:25:36;;;;;;;;;5.00;3.33;;;;;;;;5042904;28;46654;-74
2023/12/10 00:28:01;;;;;;;;;4.00;2.00;;;;;;;;5042192;28;45452;-74
2023/12/10 00:30:27;;;;;;;;;2.67;1.33;;;;;;;;5040702;28;45279;-74
2023/12/10 00:32:53;;;;;;;;;2.00;2.00;;;;;;;;5037763;28;46678;-73
2023/12/10 00:35:18;;;;;;;;;9.00;2.00;;;;;;;;5040069;28;45309;-74
2023/12/10 00:37:43;;;;;;;;;6.00;2.67;;;;;;;;5039147;28;45326;-73
2023/12/10 00:40:09;;;;;;;;;7.67;2.00;;;;;;;;5039836;28;45306;-72
2023/12/10 00:42:34;;;;;;;;;4.33;1.00;;;;;;;;5028961;28;45427;-73
2023/12/10 00:44:59;;;;;;;;;3.00;2.00;;;;;;;;5038320;28;46264;-74
2023/12/10 00:47:24;;;;;;;;;5.50;3.75;;;;;;;;5045020;28;44748;-74
2023/12/10 00:49:50;;;;;;;;;5.50;2.75;;;;;;;;5039208;28;45201;-74
2023/12/10 00:52:15;;;;;;;;;5.00;3.00;;;;;;;;5024878;28;45284;-73
2023/12/10 00:54:40;;;;;;;;;6.00;3.00;;;;;;;;5036903;28;45434;-73
2023/12/10 00:57:06;;;;;;;;;6.25;3.25;;;;;;;;5034704;28;45291;-74
2023/12/10 00:59:31;;;;;;;;;7.00;3.00;;;;;;;;5037297;28;45444;-74
2023/12/10 07:54:43;;;;;;;;;7.75;4.25;;;;;;;;5218805;22;45368;-73
2023/12/10 07:57:08;;;;;;;;;5.00;3.00;;;;;;;;5040476;28;45485;-74
2023/12/10 07:59:33;;;;;;;;;3.25;2.00;;;;;;;;5035655;28;45323;-74
2023/12/10 08:01:58;;;;;;;;;12.25;3.75;;;;;;;;5040213;28;45378;-74
2023/12/10 08:04:23;;;;;;;;;8.50;4.50;;;;;;;;5033652;28;45378;-74
2023/12/10 08:06:49;;;;;;;;;5.50;3.25;;;;;;;;5040765;28;45620;-74
2023/12/10 08:09:15;;;;;;;;;5.50;2.25;;;;;;;;5038128;28;45241;-74
2023/12/10 08:11:40;;;;;;;;;5.00;2.75;;;;;;;;5040299;28;45401;-74
2023/12/10 08:14:05;;;;;;;;;7.50;4.25;;;;;;;;5034678;28;45284;-74
2023/12/10 08:16:30;;;;;;;;;4.50;3.00;;;;;;;;5040509;28;45492;-73
2023/12/10 08:18:57;;;;;;;;;3.75;2.00;;;;;;;;5034021;28;45407;-72
2023/12/10 08:21:22;;;;;;;;;7.75;3.25;;;;;;;;5035236;28;44649;-73
2023/12/10 08:23:47;;;;;;;;;6.00;3.25;;;;;;;;5038117;28;45205;-73
2023/12/10 08:26:12;;;;;;;;;9.25;4.00;;;;;;;;5039893;28;45368;-73
2023/12/10 08:28:37;;;;;;;;;3.00;2.00;;;;;;;;5036897;28;46282;-73
2023/12/10 08:31:03;;;;;;;;;3.00;3.00;;;;;;;;5040952;28;45272;-73
2023/12/10 08:33:29;;;;;;;;;5.25;4.00;;;;;;;;5037601;28;45301;-73
2023/12/10 08:35:54;;;;;;;;;3.50;2.75;;;;;;;;5040095;28;45529;-73
2023/12/10 08:38:20;;;;;;;;;3.50;3.50;;;;;;;;5037592;28;46471;-73
2023/12/10 08:40:45;;;;;;;;;6.00;3.25;;;;;;;;5038553;28;45426;-73
2023/12/10 08:43:10;;;;;;;;;5.25;2.25;;;;;;;;5038418;28;45306;-73
2023/12/10 08:45:35;;;;;;;;;9.25;3.00;;;;;;;;5040049;28;45565;-74
2023/12/10 08:48:00;;;;;;;;;7.00;3.00;;;;;;;;5037729;28;45752;-74
2023/12/10 08:50:26;;;;;;;;;3.50;3.00;;;;;;;;5031861;28;45374;-74
2023/12/10 08:52:51;;;;;;;;;6.00;1.75;;;;;;;;5038449;28;44792;-74
2023/12/10 08:55:16;;;;;;;;;3.75;3.00;;;;;;;;5033244;28;45324;-75
2023/12/10 08:57:42;;;;;;;;;4.75;3.25;;;;;;;;5038790;28;45454;-74
2023/12/10 09:00:07;;;;;;;;;7.25;3.00;;;;;;;;5034977;28;45253;-75
2023/12/10 09:02:33;;;;;;;;;8.50;4.00;;;;;;;;5028895;28;45288;-74
2023/12/10 09:04:58;;;;;;;;;6.00;4.75;;;;;;;;5033081;28;45403;-73
2023/12/10 09:07:23;;;;;;;;;4.00;3.00;;;;;;;;5038293;28;45651;-74
2023/12/10 09:09:49;;;;;;;;;4.25;2.00;;;;;;;;5033754;28;45228;-74
2023/12/10 09:12:14;;;;;;;;;3.75;3.25;;;;;;;;5039620;28;45484;-74
2023/12/10 09:14:39;;;;;;;;;4.00;2.00;;;;;;;;5033244;28;44932;-74
2023/12/10 09:17:05;;;;;;;;;5.75;4.00;;;;;;;;5039159;28;46293;-73
2023/12/10 09:19:31;;;;;;;;;5.50;3.50;;;;;;;;5033208;28;47207;-73
2023/12/10 09:21:56;;;;;;;;;4.33;3.00;;;;;;;;5039524;28;45225;-73
2023/12/10 09:24:22;;;;;;;;;6.33;3.00;;;;;;;;5033248;28;45474;-74
2023/12/10 09:26:47;;;;;;;;;13.00;10.50;;;;;;;;5038945;28;45501;-74
2023/12/10 09:29:13;;;;;;;;;6.75;4.75;;;;;;;;5034691;28;45191;-74
2023/12/10 09:31:38;;;;;;;;;12.00;8.50;;;;;;;;5039306;28;45326;-74
2023/12/10 09:34:04;;;;;;;;;21.75;15.25;;;;;;;;5035490;28;45567;-73
2023/12/10 09:36:29;;;;;;;;;5.50;3.50;;;;;;;;5037148;28;45325;-74
2023/12/10 09:38:55;;;;;;;;;3.75;3.50;;;;;;;;5036162;28;45315;-74
2023/12/10 09:41:20;;;;;;;;;9.00;6.00;;;;;;;;5038327;28;45615;-73
2023/12/10 09:43:46;;;;;;;;;4.00;2.75;;;;;;;;5037147;28;45559;-73
2023/12/10 09:46:11;;;;;;;;;14.25;10.25;;;;;;;;5037804;28;45524;-74
2023/12/10 09:48:39;;;;;;;;;11.00;4.50;;;;;;;;5038831;28;45399;-73
2023/12/10 09:51:04;;;;;;;;;14.25;12.25;;;;;;;;5042604;28;45283;-73
2023/12/10 09:53:29;;;;;;;;;14.75;7.75;;;;;;;;5039335;28;45114;-74
2023/12/10 09:55:54;;;;;;;;;12.50;7.50;;;;;;;;5035344;28;45297;-73
2023/12/10 09:58:20;;;;;;;;;15.25;14.00;;;;;;;;5037630;28;45451;-75
2023/12/10 10:00:45;;;;;;;;;4.25;4.00;;;;;;;;5039534;28;45371;-73
2023/12/10 10:03:11;;;;;;;;;4.75;3.00;;;;;;;;5044754;28;45781;-75
2023/12/10 10:05:36;;;;;;;;;9.25;7.25;;;;;;;;5034113;28;46477;-75
2023/12/10 10:08:01;;;;;;;;;10.50;6.00;;;;;;;;5036896;28;45404;-73
2023/12/10 10:10:26;;;;;;;;;6.25;6.25;;;;;;;;5035094;28;45283;-73
2023/12/10 10:12:55;;;;;;;;;5.67;4.67;;;;;;;;5037080;28;45208;-73
2023/12/10 10:15:25;;;;;;;;;8.25;5.00;;;;;;;;5031409;28;46400;-73
2023/12/10 10:17:52;;;;;;;;;8.00;4.00;;;;;;;;5037135;28;46734;-78
2023/12/10 10:20:18;;;;;;;;;6.25;4.50;;;;;;;;5034274;28;45224;-77
2023/12/10 10:22:43;;;;;;;;;14.75;8.50;;;;;;;;5036619;28;45205;-76
2023/12/10 10:25:08;;;;;;;;;9.00;5.00;;;;;;;;5034359;28;45623;-76
2023/12/10 10:27:34;;;;;;;;;7.00;5.33;;;;;;;;5038415;28;45256;-77
2023/12/10 10:29:59;;;;;;;;;9.50;4.00;;;;;;;;5034882;28;45381;-78
2023/12/10 10:32:26;;;;;;;;;11.00;6.00;;;;;;;;5038473;28;45493;-77
2023/12/10 10:34:51;;;;;;;;;5.67;4.00;;;;;;;;5035101;28;46620;-78
2023/12/10 10:37:17;;;;;;;;;6.33;2.00;;;;;;;;5037978;28;45334;-78
2023/12/10 10:39:48;;;;;;;;;6.33;3.00;;;;;;;;5031166;28;45398;-77
2023/12/10 10:42:13;;;;;;;;;6.67;2.33;;;;;;;;5038674;28;45509;-78
2023/12/10 10:44:39;;;;;;;;;4.00;3.00;;;;;;;;5033520;28;47081;-80
2023/12/10 10:47:05;;;;;;;;;5.33;4.00;;;;;;;;5038590;28;45260;-78
2023/12/10 10:49:31;;;;;;;;;7.33;3.33;;;;;;;;5035090;28;44736;-77
2023/12/10 10:51:58;;;;;;;;;5.67;3.00;;;;;;;;5036620;28;45486;-75
2023/12/10 10:54:23;;;;;;;;;3.00;2.00;;;;;;;;5034310;28;45443;-78
2023/12/10 10:56:49;;;;;;;;;5.33;3.00;;;;;;;;5035540;28;45395;-74
2023/12/10 10:59:30;;;;;;;;;5.67;3.33;;;;;;;;5034043;28;45320;-76
2023/12/10 11:02:04;;;;;;;;;7.67;3.00;;;;;;;;5038097;28;45330;-75
2023/12/10 11:04:34;;;;;;;;;6.00;4.00;;;;;;;;5036253;28;45501;-76
2023/12/10 11:06:59;;;;;;;;;2.00;2.00;;;;;;;;5038355;28;45216;-76
2023/12/10 11:09:25;;;;;;;;;1.67;1.67;;;;;;;;5034032;28;45359;-76
2023/12/10 11:11:50;;;;;;;;;8.33;3.00;;;;;;;;5039156;28;45470;-76
2023/12/10 11:14:22;;;;;;;;;6.33;3.00;;;;;;;;5034164;28;46695;-76
2023/12/10 11:16:56;;;;;;;;;7.00;2.00;;;;;;;;5038669;28;45318;-76
2023/12/10 11:19:22;;;;;;;;;3.00;2.00;;;;;;;;5035250;28;45235;-76
2023/12/10 11:21:47;;;;;;;;;11.33;4.00;;;;;;;;5037665;28;45300;-77
2023/12/10 11:24:12;;;;;;;;;6.67;3.00;;;;;;;;5037764;28;45339;-76
2023/12/10 11:26:38;;;;;;;;;2.33;2.00;;;;;;;;5041375;28;45497;-76
2023/12/10 11:29:03;;;;;;;;;7.33;4.00;;;;;;;;5039354;28;45581;-77
2023/12/10 11:31:28;;;;;;;;;3.00;0.67;;;;;;;;5041654;28;45305;-76
2023/12/10 11:33:53;;;;;;;;;7.00;2.00;;;;;;;;5036974;28;45560;-76
2023/12/10 11:36:18;;;;;;;;;7.67;4.00;;;;;;;;5042764;28;44784;-77
2023/12/10 11:38:47;;;;;;;;;5.00;2.00;;;;;;;;5039919;28;45335;-76
2023/12/10 11:41:12;;;;;;;;;6.00;3.00;;;;;;;;5042499;28;45208;-77
2023/12/10 11:43:37;;;;;;;;;2.33;1.00;;;;;;;;5038253;28;46558;-76
2023/12/10 11:46:03;;;;;;;;;7.00;3.00;;;;;;;;5040848;28;45290;-76
2023/12/10 11:48:28;;;;;;;;;7.00;3.00;;;;;;;;5036912;28;45395;-77
2023/12/10 11:50:53;;;;;;;;;3.67;3.67;;;;;;;;5028114;28;46552;-77
2023/12/10 11:53:18;;;;;;;;;8.67;4.33;;;;;;;;5032806;28;48150;-74
2023/12/10 11:55:44;;;;;;;;;4.00;3.33;;;;;;;;5037823;28;45418;-74
2023/12/10 11:58:09;;;;;;;;;5.33;4.00;;;;;;;;5029268;28;45264;-76
2023/12/10 12:00:35;;;;;;;;;13.67;5.00;;;;;;;;5053528;28;46322;-77
2023/12/10 12:03:02;;;;;;;;;6.00;4.33;;;;;;;;5036914;28;45630;-77
2023/12/10 12:05:27;;;;;;;;;8.33;4.33;;;;;;;;5040683;28;45310;-76
2023/12/10 12:07:53;;;;;;;;;5.33;4.00;;;;;;;;5034192;28;45410;-76
2023/12/10 12:10:18;;;;;;;;;6.67;4.00;;;;;;;;5040457;28;45413;-76
2023/12/10 12:12:44;;;;;;;;;8.00;5.00;;;;;;;;5038253;28;46435;-77
2023/12/10 12:15:10;;;;;;;;;8.00;4.00;;;;;;;;5052522;28;45235;-76
2023/12/10 12:17:37;;;;;;;;;5.67;3.00;;;;;;;;5038924;28;45282;-76
2023/12/10 12:20:26;;;;;;;;;6.00;4.00;;;;;;;;5039469;28;45535;-76
2023/12/10 12:22:51;;;;;;;;;7.67;6.33;;;;;;;;5031334;28;45730;-75
2023/12/10 12:25:17;;;;;;;;;8.00;3.00;;;;;;;;5037613;28;45346;-75
2023/12/10 12:27:43;;;;;;;;;4.00;3.00;;;;;;;;5034974;28;45326;-76
2023/12/10 12:30:08;;;;;;;;;8.67;5.33;;;;;;;;5039313;28;46242;-76
2023/12/10 12:32:34;;;;;;;;;5.67;3.67;;;;;;;;5039423;28;45411;-76
2023/12/10 12:34:59;;;;;;;;;8.67;5.67;;;;;;;;5048566;28;45252;-76
2023/12/10 12:37:24;;;;;;;;;3.00;3.00;;;;;;;;5056772;28;45320;-76
2023/12/10 12:39:51;;;;;;;;;4.67;3.67;;;;;;;;5037758;28;45378;-76
2023/12/10 12:42:16;;;;;;;;;6.33;4.00;;;;;;;;5040523;28;45580;-75
2023/12/10 12:44:42;;;;;;;;;11.67;5.67;;;;;;;;5037274;28;45540;-76
2023/12/10 12:47:07;;;;;;;;;5.67;4.67;;;;;;;;5034820;28;45493;-76
2023/12/10 12:49:32;;;;;;;;;17.33;11.67;;;;;;;;5038395;28;45376;-76
2023/12/10 12:51:57;;;;;;;;;77.25;64.50;;;;;;;;5031534;28;47084;-76
2023/12/10 12:54:23;;;;;;;;;10.33;6.33;;;;;;;;5036903;28;45291;-76
2023/12/10 12:56:48;;;;;;;;;13.33;10.00;;;;;;;;5058915;28;45186;-76
2023/12/10 12:59:13;;;;;;;;;6.00;4.33;;;;;;;;5036769;28;45377;-75
2023/12/10 13:01:39;;;;;;;;;3.00;3.00;;;;;;;;5040238;28;45380;-74
2023/12/10 13:04:04;;;;;;;;;8.67;6.00;;;;;;;;5036516;28;45304;-74
2023/12/10 13:06:29;;;;;;;;;7.33;5.00;;;;;;;;5040011;28;45295;-75
2023/12/10 13:08:54;;;;;;;;;34.25;30.50;;;;;;;;5033659;28;45356;-75
2023/12/10 13:11:20;;;;;;;;;14.00;9.00;;;;;;;;5035713;28;45402;-76
2023/12/10 13:13:45;;;;;;;;;6.67;4.00;;;;;;;;5036437;28;45419;-74
2023/12/10 13:16:10;;;;;;;;;33.25;29.00;;;;;;;;5039996;28;45441;-75
2023/12/10 13:18:35;;;;;;;;;11.50;10.50;;;;;;;;5037138;28;45910;-76
2023/12/10 13:21:00;;;;;;;;;35.75;30.75;;;;;;;;5038283;28;47099;-76
2023/12/10 13:23:25;;;;;;;;;10.33;4.33;;;;;;;;5033223;28;45468;-77
2023/12/10 13:25:51;;;;;;;;;25.50;19.50;;;;;;;;5039741;28;45484;-76
2023/12/10 13:28:16;;;;;;;;;22.00;11.33;;;;;;;;5036477;28;45442;-76
2023/12/10 13:30:41;;;;;;;;;6.33;4.00;;;;;;;;5036389;28;47084;-77
2023/12/10 13:33:06;;;;;;;;;9.67;9.67;;;;;;;;5033700;28;45514;-76
2023/12/10 13:35:32;;;;;;;;;6.67;5.67;;;;;;;;5039375;28;45388;-77
2023/12/10 13:37:57;;;;;;;;;6.33;4.00;;;;;;;;5038258;28;45422;-76
2023/12/10 13:40:22;;;;;;;;;20.25;15.50;;;;;;;;5037892;28;45606;-76
2023/12/10 13:42:47;;;;;;;;;17.00;14.00;;;;;;;;5037968;28;45310;-76
2023/12/10 13:45:12;;;;;;;;;10.67;8.00;;;;;;;;5037816;28;45259;-76
2023/12/10 13:47:38;;;;;;;;;2.00;0.67;;;;;;;;5037397;28;47222;-76
2023/12/10 13:50:03;;;;;;;;;11.00;5.00;;;;;;;;5037130;28;47753;-76
2023/12/10 13:52:28;;;;;;;;;15.00;9.00;;;;;;;;5040269;28;45341;-75
2023/12/10 13:54:54;;;;;;;;;6.67;5.00;;;;;;;;5037551;28;45419;-76
2023/12/10 13:57:19;;;;;;;;;10.33;6.00;;;;;;;;5040665;28;45529;-76
2023/12/10 13:59:44;;;;;;;;;4.00;4.00;;;;;;;;5034507;28;45307;-77
2023/12/10 14:02:10;;;;;;;;;9.33;6.67;;;;;;;;5040794;28;45145;-76
2023/12/10 14:04:35;;;;;;;;;4.00;3.00;;;;;;;;5036290;28;45343;-75
2023/12/10 14:07:01;;;;;;;;;5.33;3.33;;;;;;;;5039151;28;45562;-78
2023/12/10 14:09:26;;;;;;;;;5.67;3.00;;;;;;;;5033246;28;47351;-77
2023/12/10 14:11:51;;;;;;;;;9.67;4.00;;;;;;;;5034959;28;45509;-77
2023/12/10 14:14:16;;;;;;;;;7.00;4.00;;;;;;;;5031709;28;45672;-76
2023/12/10 14:16:42;;;;;;;;;8.67;5.00;;;;;;;;5036563;28;45948;-78
2023/12/10 14:19:07;;;;;;;;;5.00;3.67;;;;;;;;5037477;28;45391;-78
2023/12/10 14:21:32;;;;;;;;;10.67;7.00;;;;;;;;5038461;28;45214;-78
2023/12/10 14:23:58;;;;;;;;;7.33;5.67;;;;;;;;5048167;28;45181;-78
2023/12/10 14:26:23;;;;;;;;;94.25;85.25;;;;;;;;5034256;28;45260;-78
2023/12/10 14:28:48;;;;;;;;;19.67;14.00;;;;;;;;5027352;28;45181;-77
2023/12/10 14:31:13;;;;;;;;;25.50;22.50;;;;;;;;5025741;28;45437;-75
2023/12/10 14:33:39;;;;;;;;;9.67;5.00;;;;;;;;5031939;28;45290;-76
2023/12/10 14:36:04;;;;;;;;;7.33;5.67;;;;;;;;5033739;28;45291;-76
2023/12/10 14:38:29;;;;;;;;;23.25;18.75;;;;;;;;5027166;28;45364;-76
2023/12/10 14:40:54;;;;;;;;;6.67;6.67;;;;;;;;5036020;28;45279;-76
2023/12/10 14:43:19;;;;;;;;;8.33;5.00;;;;;;;;5024304;28;45493;-77
2023/12/10 14:45:45;;;;;;;;;18.00;13.50;;;;;;;;5031919;28;45728;-76
2023/12/10 14:48:10;;;;;;;;;60.50;44.00;;;;;;;;5038720;28;47612;-76
2023/12/10 14:50:35;;;;;;;;;25.00;22.50;;;;;;;;5033625;28;45284;-77
2023/12/10 14:53:00;;;;;;;;;5.67;4.00;;;;;;;;5024836;28;45341;-76
2023/12/10 14:55:26;;;;;;;;;14.67;10.67;;;;;;;;5036710;28;45464;-77
2023/12/10 14:57:51;;;;;;;;;9.33;5.67;;;;;;;;5037269;28;45436;-77
2023/12/10 15:00:18;;;;;;;;;10.33;7.00;;;;;;;;5039872;28;45642;-76
2023/12/10 15:02:43;;;;;;;;;14.00;11.75;;;;;;;;5040209;28;45513;-78
2023/12/10 15:05:08;;;;;;;;;8.33;7.33;;;;;;;;5038048;28;45906;-77
2023/12/10 15:07:34;;;;;;;;;3.00;3.00;;;;;;;;5040282;28;45584;-76
2023/12/10 15:09:59;;;;;;;;;9.00;7.00;;;;;;;;5035924;28;45285;-76
2023/12/10 15:12:24;;;;;;;;;7.00;4.00;;;;;;;;5042159;28;45283;-78
2023/12/10 15:14:49;;;;;;;;;5.00;5.00;;;;;;;;5041111;28;45572;-78
2023/12/10 15:17:14;;;;;;;;;4.00;3.00;;;;;;;;5041730;28;46430;-76
2023/12/10 15:19:43;;;;;;;;;3.33;3.33;;;;;;;;5039064;28;45354;-78
2023/12/10 15:22:09;;;;;;;;;5.67;4.00;;;;;;;;5040840;28;45311;-76
2023/12/10 15:24:34;;;;;;;;;5.33;3.00;;;;;;;;5030225;28;45495;-76
2023/12/10 15:26:59;;;;;;;;;5.00;1.67;;;;;;;;5039174;28;45718;-78
2023/12/10 15:29:25;;;;;;;;;4.67;3.67;;;;;;;;5035468;28;45326;-76
2023/12/10 15:31:50;;;;;;;;;6.00;6.00;;;;;;;;5042010;28;45311;-78
2023/12/10 15:34:15;;;;;;;;;4.00;4.00;;;;;;;;5034215;28;46062;-77
2023/12/10 15:36:40;;;;;;;;;5.00;3.00;;;;;;;;5042114;28;45569;-77
2023/12/10 15:39:05;;;;;;;;;6.00;4.00;;;;;;;;5049807;28;45410;-78
2023/12/10 15:41:30;;;;;;;;;5.00;2.33;;;;;;;;5041954;28;45352;-78
2023/12/10 15:43:56;;;;;;;;;5.67;3.33;;;;;;;;5035088;28;45497;-77
2023/12/10 15:46:21;;;;;;;;;4.33;1.33;;;;;;;;5041256;28;45342;-77
2023/12/10 15:48:46;;;;;;;;;4.33;3.00;;;;;;;;5035302;28;45332;-77
2023/12/10 15:51:11;;;;;;;;;2.33;2.00;;;;;;;;5041012;28;45367;-76
2023/12/10 15:53:36;;;;;;;;;1.00;1.00;;;;;;;;5036993;28;45525;-76
2023/12/10 15:56:02;;;;;;;;;10.00;6.67;;;;;;;;5054729;28;46895;-75
2023/12/10 15:58:27;;;;;;;;;2.00;1.67;;;;;;;;5028398;28;45447;-76
2023/12/10 16:00:53;;;;;;;;;2.00;2.00;;;;;;;;5033964;28;45410;-76
2023/12/10 16:03:21;;;;;;;;;3.00;2.00;;;;;;;;5046499;28;45583;-75
2023/12/10 16:05:47;;;;;;;;;2.00;2.00;;;;;;;;5038767;28;47115;-76
2023/12/10 16:08:12;;;;;;;;;4.67;3.00;;;;;;;;5036141;28;45366;-75
2023/12/10 16:10:37;;;;;;;;;3.00;3.00;;;;;;;;5034730;28;45266;-75
2023/12/10 16:13:02;;;;;;;;;2.00;2.00;;;;;;;;5051828;28;46293;-75
2023/12/10 16:15:27;;;;;;;;;4.00;2.00;;;;;;;;5047498;28;47095;-74
2023/12/10 16:17:53;;;;;;;;;2.00;2.00;;;;;;;;5053839;28;45242;-75
2023/12/10 16:20:18;;;;;;;;;4.33;3.33;;;;;;;;5040148;28;45374;-75
2023/12/10 16:22:46;;;;;;;;;4.00;4.00;;;;;;;;5036720;28;45744;-76
2023/12/10 16:25:11;;;;;;;;;4.00;2.67;;;;;;;;5039941;28;45696;-76
2023/12/10 16:27:37;;;;;;;;;5.67;4.00;;;;;;;;5039558;28;45426;-74
2023/12/10 16:30:02;;;;;;;;;5.00;5.00;;;;;;;;5033609;28;45542;-74
2023/12/10 16:32:27;;;;;;;;;3.00;3.00;;;;;;;;5030544;28;45615;-75
2023/12/10 16:34:52;;;;;;;;;4.33;3.00;;;;;;;;5036660;28;45291;-74
2023/12/10 16:37:17;;;;;;;;;5.00;3.00;;;;;;;;5027384;28;45351;-75
2023/12/10 16:39:43;;;;;;;;;2.67;2.67;;;;;;;;5032891;28;45273;-75
2023/12/10 16:42:08;;;;;;;;;5.00;3.00;;;;;;;;5038057;28;45252;-74
2023/12/10 16:44:33;;;;;;;;;8.67;7.33;;;;;;;;5030178;28;45513;-74
2023/12/10 16:46:58;;;;;;;;;4.00;3.33;;;;;;;;5032638;28;45314;-75
2023/12/10 16:49:26;;;;;;;;;6.00;3.00;;;;;;;;5032538;28;45451;-75
2023/12/10 16:51:51;;;;;;;;;7.00;6.00;;;;;;;;5053913;28;45354;-75
2023/12/10 16:54:17;;;;;;;;;5.33;5.33;;;;;;;;5034758;28;45387;-75
2023/12/10 16:56:43;;;;;;;;;6.33;5.33;;;;;;;;5039810;28;45375;-75
2023/12/10 16:59:08;;;;;;;;;3.00;2.00;;;;;;;;5029430;28;45394;-75
2023/12/10 17:01:33;;;;;;;;;1.33;1.33;;;;;;;;5034845;28;45370;-74
2023/12/10 17:03:59;;;;;;;;;6.00;5.67;;;;;;;;5049622;28;46825;-75
2023/12/10 17:06:26;;;;;;;;;2.67;2.00;;;;;;;;5039559;28;45261;-75
2023/12/10 17:08:51;;;;;;;;;5.00;4.00;;;;;;;;5035751;28;45533;-75
2023/12/10 17:11:16;;;;;;;;;4.67;4.67;;;;;;;;5038276;28;45425;-77
2023/12/10 17:13:41;;;;;;;;;5.67;5.67;;;;;;;;5032453;28;46855;-75
2023/12/10 17:16:06;;;;;;;;;6.00;4.00;;;;;;;;5031835;28;45232;-75
2023/12/10 17:18:31;;;;;;;;;2.67;2.67;;;;;;;;5032818;28;45375;-75
2023/12/10 17:20:57;;;;;;;;;3.33;3.33;;;;;;;;5038985;28;45319;-74
2023/12/10 17:23:22;;;;;;;;;2.00;2.00;;;;;;;;5037723;28;45405;-74
2023/12/10 17:25:47;;;;;;;;;4.00;4.00;;;;;;;;5033059;28;44764;-74
2023/12/10 17:28:13;;;;;;;;;5.00;4.00;;;;;;;;5034713;28;45260;-74
2023/12/10 17:30:38;;;;;;;;;4.33;3.00;;;;;;;;5036658;28;45442;-74
2023/12/10 17:33:03;;;;;;;;;4.67;3.33;;;;;;;;5036032;28;46090;-74
2023/12/10 17:35:31;;;;;;;;;4.00;4.00;;;;;;;;5035637;28;45371;-73
2023/12/10 17:37:56;;;;;;;;;4.67;4.00;;;;;;;;5037628;28;45355;-75
2023/12/10 17:40:22;;;;;;;;;7.33;6.00;;;;;;;;5037239;28;45454;-74
2023/12/10 17:42:47;;;;;;;;;11.00;10.00;;;;;;;;5033492;28;46991;-74
2023/12/10 17:45:12;;;;;;;;;10.33;9.00;;;;;;;;5033104;28;45410;-74
2023/12/10 17:47:37;;;;;;;;;6.67;6.33;;;;;;;;5038009;28;45464;-76
2023/12/10 17:50:03;;;;;;;;;7.00;4.00;;;;;;;;5039169;28;45354;-74
2023/12/10 17:52:28;;;;;;;;;4.33;4.00;;;;;;;;5051996;28;46474;-74
2023/12/10 17:54:54;;;;;;;;;8.00;7.00;;;;;;;;5036213;28;45722;-75
2023/12/10 17:57:20;;;;;;;;;39.00;28.25;;;;;;;;5039817;28;45374;-76
2023/12/10 17:59:45;;;;;;;;;10.00;10.00;;;;;;;;5035922;28;45271;-76
2023/12/10 18:02:10;;;;;;;;;9.00;6.33;;;;;;;;5033750;28;45266;-75
2023/12/10 18:04:35;;;;;;;;;12.67;10.00;;;;;;;;5032749;28;45493;-74
2023/12/10 18:07:00;;;;;;;;;9.67;8.00;;;;;;;;5039092;28;45425;-75
2023/12/10 18:09:25;;;;;;;;;10.67;10.00;;;;;;;;5034160;28;45367;-76
2023/12/10 18:11:51;;;;;;;;;16.67;14.33;;;;;;;;5034144;28;48016;-74
2023/12/10 18:14:18;;;;;;;;;17.67;15.67;;;;;;;;5027161;28;45378;-74
2023/12/10 18:16:43;;;;;;;;;12.00;9.00;;;;;;;;5032014;28;45322;-74
2023/12/10 18:19:08;;;;;;;;;18.00;16.33;;;;;;;;5026225;28;47214;-74
2023/12/10 18:21:34;;;;;;;;;8.33;8.00;;;;;;;;5037470;28;48155;-74
2023/12/10 18:23:59;;;;;;;;;29.75;27.50;;;;;;;;5033152;28;45283;-75
2023/12/10 18:26:24;;;;;;;;;14.00;13.33;;;;;;;;5039157;28;45221;-76
2023/12/10 18:28:49;;;;;;;;;11.00;10.00;;;;;;;;5032515;28;45241;-76
2023/12/10 18:31:14;;;;;;;;;25.67;22.33;;;;;;;;5038679;28;45327;-74
2023/12/10 18:33:40;;;;;;;;;15.00;13.33;;;;;;;;5036485;28;45441;-74
2023/12/10 18:36:05;;;;;;;;;35.50;30.00;;;;;;;;5040877;28;45487;-75
2023/12/10 18:38:31;;;;;;;;;23.50;23.00;;;;;;;;5038692;28;45513;-74
2023/12/10 18:40:56;;;;;;;;;32.75;28.25;;;;;;;;5041950;28;45481;-74
2023/12/10 18:43:21;;;;;;;;;28.25;25.25;;;;;;;;5035610;28;45521;-75
2023/12/10 18:45:46;;;;;;;;;23.00;19.00;;;;;;;;5042609;28;45204;-74
2023/12/10 18:48:12;;;;;;;;;21.00;19.67;;;;;;;;5038868;28;45449;-75
2023/12/10 18:50:37;;;;;;;;;19.33;18.00;;;;;;;;5042284;28;45445;-74
2023/12/10 18:53:02;;;;;;;;;18.67;16.67;;;;;;;;5055452;28;45606;-75
2023/12/10 18:55:28;;;;;;;;;30.75;24.25;;;;;;;;5042110;28;45142;-74
2023/12/10 18:57:53;;;;;;;;;35.25;32.50;;;;;;;;5040036;28;45327;-74
2023/12/10 19:00:20;;;;;;;;;18.25;16.25;;;;;;;;5041915;28;45228;-74
2023/12/10 19:02:45;;;;;;;;;28.00;25.50;;;;;;;;5037302;28;45333;-74
2023/12/10 19:05:10;;;;;;;;;20.33;18.33;;;;;;;;5044068;28;44723;-74
2023/12/10 19:07:35;;;;;;;;;15.67;13.67;;;;;;;;5057647;28;46865;-75
2023/12/10 19:10:01;;;;;;;;;4.33;4.00;;;;;;;;5040331;28;45471;-74
2023/12/10 19:12:26;;;;;;;;;8.00;8.00;;;;;;;;5040935;28;45338;-75
2023/12/10 19:14:51;;;;;;;;;5.67;5.67;;;;;;;;5040059;28;45299;-74
2023/12/10 19:17:16;;;;;;;;;20.33;16.67;;;;;;;;5040831;28;46215;-75
2023/12/10 19:19:42;;;;;;;;;6.33;5.00;;;;;;;;5030921;28;47066;-75
2023/12/10 19:22:07;;;;;;;;;7.33;7.33;;;;;;;;5038971;28;45455;-75
2023/12/10 19:24:32;;;;;;;;;8.67;7.33;;;;;;;;5031487;28;45346;-74
2023/12/10 19:26:57;;;;;;;;;16.67;15.33;;;;;;;;5041618;28;45533;-75
2023/12/10 19:29:22;;;;;;;;;12.00;11.00;;;;;;;;5038471;28;45483;-75
2023/12/10 19:31:48;;;;;;;;;11.33;11.00;;;;;;;;5041808;28;45322;-75
2023/12/10 19:34:13;;;;;;;;;7.67;7.33;;;;;;;;5037383;28;45290;-75
2023/12/10 19:36:39;;;;;;;;;8.33;8.33;;;;;;;;5040949;28;45307;-75
2023/12/10 19:39:04;;;;;;;;;9.33;9.00;;;;;;;;5037441;28;45667;-74
2023/12/10 19:41:29;;;;;;;;;8.67;8.33;;;;;;;;5041974;28;45430;-76
2023/12/10 19:43:54;;;;;;;;;47.50;37.50;;;;;;;;5054106;28;45279;-75
2023/12/10 19:46:19;;;;;;;;;22.25;22.25;;;;;;;;5057187;28;45549;-74
2023/12/10 19:48:44;;;;;;;;;33.00;30.00;;;;;;;;5039399;28;46573;-75
2023/12/10 19:51:10;;;;;;;;;39.25;36.25;;;;;;;;5041495;28;46514;-74
2023/12/10 19:53:35;;;;;;;;;23.00;21.50;;;;;;;;5033488;28;45461;-74
2023/12/10 19:56:00;;;;;;;;;25.50;23.00;;;;;;;;5041327;28;45456;-73
2023/12/10 19:58:26;;;;;;;;;20.75;20.75;;;;;;;;5054786;28;47914;-74
2023/12/10 20:00:52;;;;;;;;;25.00;24.50;;;;;;;;5039681;28;45517;-73
2023/12/10 20:03:17;;;;;;;;;22.75;22.25;;;;;;;;5042659;28;45476;-77
2023/12/10 20:05:43;;;;;;;;;24.50;23.00;;;;;;;;5040522;28;45991;-74
2023/12/10 20:08:08;;;;;;;;;25.00;22.00;;;;;;;;5036109;28;46962;-74
2023/12/10 20:10:33;;;;;;;;;36.25;29.75;;;;;;;;5032655;28;45406;-72
2023/12/10 20:12:59;;;;;;;;;43.75;34.50;;;;;;;;5037149;28;45261;-75
2023/12/10 20:15:24;;;;;;;;;42.50;35.00;;;;;;;;5039375;28;45604;-75
2023/12/10 20:17:50;;;;;;;;;40.50;35.25;;;;;;;;5037533;28;47153;-75
2023/12/10 20:20:16;;;;;;;;;40.50;35.75;;;;;;;;5039558;28;45558;-76
2023/12/10 20:22:41;;;;;;;;;37.25;32.75;;;;;;;;5042970;28;45339;-76
2023/12/10 20:25:06;;;;;;;;;45.50;37.00;;;;;;;;5043128;28;45416;-75
2023/12/10 20:27:31;;;;;;;;;33.25;30.75;;;;;;;;5044238;28;45386;-76
2023/12/10 20:29:57;;;;;;;;;51.25;41.00;;;;;;;;5036989;28;45400;-76
2023/12/10 20:32:22;;;;;;;;;32.25;29.25;;;;;;;;5041129;28;45311;-75
2023/12/10 20:34:47;;;;;;;;;18.50;17.50;;;;;;;;5032678;28;45423;-75
2023/12/10 20:37:15;;;;;;;;;16.67;15.33;;;;;;;;5040804;28;45402;-76
2023/12/10 20:39:40;;;;;;;;;31.25;31.25;;;;;;;;5034410;28;45225;-75
2023/12/10 20:42:06;;;;;;;;;10.00;9.67;;;;;;;;5041293;28;45367;-75
2023/12/10 20:44:31;;;;;;;;;19.75;19.50;;;;;;;;5034432;28;46045;-76
2023/12/10 20:46:56;;;;;;;;;12.00;11.00;;;;;;;;5029985;28;46256;-76
2023/12/10 20:49:21;;;;;;;;;18.00;16.00;;;;;;;;5032048;28;44733;-75
2023/12/10 20:51:47;;;;;;;;;26.00;24.75;;;;;;;;5041052;28;45422;-75
2023/12/10 20:54:12;;;;;;;;;13.67;12.33;;;;;;;;5033815;28;45364;-76
2023/12/10 20:56:37;;;;;;;;;17.00;14.33;;;;;;;;5040696;28;46520;-76
2023/12/10 20:59:02;;;;;;;;;22.00;20.00;;;;;;;;5035732;28;45422;-76
2023/12/10 21:01:27;;;;;;;;;13.33;13.00;;;;;;;;5034862;28;45498;-76
2023/12/10 21:03:53;;;;;;;;;24.50;19.25;;;;;;;;5034099;28;45387;-75
2023/12/10 21:06:18;;;;;;;;;20.50;20.50;;;;;;;;5038053;28;45459;-75
2023/12/10 21:08:43;;;;;;;;;26.75;24.50;;;;;;;;5036760;28;45453;-76
